sensor_id;sensor_type;location;lat;lon;timestamp;P1;durP1;ratioP1;P2;durP2;ratioP2
11620;SDS011;5866;49.094;11.900;2023-08-12T00:00:25;22.20;;;20.50;;
11620;SDS011;5866;49.094;11.900;2023-08-12T00:02:53;23.50;;;21.95;;
11620;SDS011;5866;49.094;11.900;2023-08-12T00:05:22;22.17;;;20.55;;
11620;SDS011;5866;49.094;11.900;2023-08-12T00:07:49;23.58;;;21.88;;
11620;SDS011;5866;49.094;11.900;2023-08-12T00:10:17;21.88;;;20.33;;
11620;SDS011;5866;49.094;11.900;2023-08-12T00:12:45;20.25;;;18.80;;
11620;SDS011;5866;49.094;11.900;2023-08-12T00:15:12;21.02;;;19.48;;
11620;SDS011;5866;49.094;11.900;2023-08-12T00:17:40;21.55;;;20.05;;
11620;SDS011;5866;49.094;11.900;2023-08-12T00:20:08;17.80;;;16.38;;
11620;SDS011;5866;49.094;11.900;2023-08-12T00:22:39;15.57;;;14.43;;
11620;SDS011;5866;49.094;11.900;2023-08-12T00:25:07;14.40;;;13.40;;
11620;SDS011;5866;49.094;11.900;2023-08-12T00:27:35;15.63;;;14.23;;
11620;SDS011;5866;49.094;11.900;2023-08-12T00:30:04;11.60;;;10.70;;
11620;SDS011;5866;49.094;11.900;2023-08-12T00:32:32;12.30;;;11.40;;
11620;SDS011;5866;49.094;11.900;2023-08-12T00:35:00;12.25;;;11.25;;
11620;SDS011;5866;49.094;11.900;2023-08-12T00:37:29;12.38;;;11.48;;
11620;SDS011;5866;49.094;11.900;2023-08-12T00:39:58;16.48;;;15.38;;
11620;SDS011;5866;49.094;11.900;2023-08-12T00:42:25;14.57;;;13.38;;
11620;SDS011;5866;49.094;11.900;2023-08-12T00:44:53;12.00;;;11.00;;
11620;SDS011;5866;49.094;11.900;2023-08-12T00:47:20;13.25;;;12.20;;
11620;SDS011;5866;49.094;11.900;2023-08-12T00:49:49;23.08;;;21.52;;
11620;SDS011;5866;49.094;11.900;2023-08-12T00:52:17;26.50;;;24.65;;
11620;SDS011;5866;49.094;11.900;2023-08-12T00:54:45;31.65;;;29.52;;
11620;SDS011;5866;49.094;11.900;2023-08-12T00:57:14;44.22;;;41.55;;
11620;SDS011;5866;49.094;11.900;2023-08-12T00:59:42;40.85;;;38.35;;
11620;SDS011;5866;49.094;11.900;2023-08-12T01:02:12;34.13;;;31.98;;
11620;SDS011;5866;49.094;11.900;2023-08-12T01:04:40;36.13;;;33.83;;
11620;SDS011;5866;49.094;11.900;2023-08-12T01:07:07;27.08;;;25.35;;
11620;SDS011;5866;49.094;11.900;2023-08-12T01:09:36;28.60;;;26.73;;
11620;SDS011;5866;49.094;11.900;2023-08-12T01:12:04;28.92;;;27.13;;
11620;SDS011;5866;49.094;11.900;2023-08-12T01:14:41;24.27;;;22.65;;
11620;SDS011;5866;49.094;11.900;2023-08-12T01:17:13;27.15;;;25.33;;
11620;SDS011;5866;49.094;11.900;2023-08-12T01:19:42;24.88;;;23.33;;
11620;SDS011;5866;49.094;11.900;2023-08-12T01:22:12;24.58;;;22.80;;
11620;SDS011;5866;49.094;11.900;2023-08-12T01:24:43;34.08;;;31.33;;
11620;SDS011;5866;49.094;11.900;2023-08-12T01:27:12;30.90;;;29.00;;
11620;SDS011;5866;49.094;11.900;2023-08-12T01:29:41;26.88;;;24.98;;
11620;SDS011;5866;49.094;11.900;2023-08-12T01:32:11;26.20;;;24.38;;
11620;SDS011;5866;49.094;11.900;2023-08-12T01:34:46;32.05;;;30.05;;
11620;SDS011;5866;49.094;11.900;2023-08-12T01:37:19;22.73;;;21.02;;
11620;SDS011;5866;49.094;11.900;2023-08-12T01:39:53;31.05;;;28.85;;
11620;SDS011;5866;49.094;11.900;2023-08-12T01:42:22;27.13;;;24.95;;
11620;SDS011;5866;49.094;11.900;2023-08-12T01:44:50;20.42;;;19.02;;
11620;SDS011;5866;49.094;11.900;2023-08-12T01:47:18;22.00;;;20.40;;
11620;SDS011;5866;49.094;11.900;2023-08-12T01:49:45;23.80;;;21.98;;
11620;SDS011;5866;49.094;11.900;2023-08-12T01:52:13;19.23;;;17.90;;
11620;SDS011;5866;49.094;11.900;2023-08-12T01:54:41;18.98;;;17.60;;
11620;SDS011;5866;49.094;11.900;2023-08-12T01:57:10;20.08;;;18.70;;
11620;SDS011;5866;49.094;11.900;2023-08-12T01:59:38;17.88;;;16.58;;
11620;SDS011;5866;49.094;11.900;2023-08-12T02:02:06;16.88;;;15.60;;
11620;SDS011;5866;49.094;11.900;2023-08-12T02:04:34;16.95;;;15.70;;
11620;SDS011;5866;49.094;11.900;2023-08-12T02:07:02;15.43;;;14.25;;
11620;SDS011;5866;49.094;11.900;2023-08-12T02:09:30;20.52;;;19.13;;
11620;SDS011;5866;49.094;11.900;2023-08-12T02:11:58;19.38;;;17.90;;
11620;SDS011;5866;49.094;11.900;2023-08-12T02:14:27;17.38;;;16.15;;
11620;SDS011;5866;49.094;11.900;2023-08-12T02:16:54;20.63;;;19.08;;
11620;SDS011;5866;49.094;11.900;2023-08-12T02:19:22;17.50;;;16.00;;
11620;SDS011;5866;49.094;11.900;2023-08-12T02:21:49;17.77;;;16.58;;
11620;SDS011;5866;49.094;11.900;2023-08-12T02:24:17;16.92;;;15.73;;
11620;SDS011;5866;49.094;11.900;2023-08-12T02:26:45;15.60;;;14.20;;
11620;SDS011;5866;49.094;11.900;2023-08-12T02:29:12;16.77;;;15.57;;
11620;SDS011;5866;49.094;11.900;2023-08-12T02:31:41;16.75;;;15.35;;
11620;SDS011;5866;49.094;11.900;2023-08-12T02:34:09;17.85;;;16.55;;
11620;SDS011;5866;49.094;11.900;2023-08-12T02:36:36;20.08;;;18.67;;
11620;SDS011;5866;49.094;11.900;2023-08-12T02:39:04;18.02;;;16.60;;
11620;SDS011;5866;49.094;11.900;2023-08-12T02:41:32;18.85;;;17.35;;
11620;SDS011;5866;49.094;11.900;2023-08-12T02:43:59;26.80;;;24.77;;
11620;SDS011;5866;49.094;11.900;2023-08-12T02:46:27;35.75;;;33.33;;
11620;SDS011;5866;49.094;11.900;2023-08-12T02:48:56;28.92;;;26.88;;
11620;SDS011;5866;49.094;11.900;2023-08-12T02:51:23;50.45;;;47.28;;
11620;SDS011;5866;49.094;11.900;2023-08-12T02:53:51;39.53;;;36.72;;
11620;SDS011;5866;49.094;11.900;2023-08-12T02:56:18;44.17;;;41.40;;
11620;SDS011;5866;49.094;11.900;2023-08-12T02:58:46;44.85;;;42.00;;
11620;SDS011;5866;49.094;11.900;2023-08-12T03:01:14;52.30;;;49.05;;
11620;SDS011;5866;49.094;11.900;2023-08-12T03:03:42;78.78;;;74.07;;
11620;SDS011;5866;49.094;11.900;2023-08-12T03:06:11;67.13;;;63.13;;
11620;SDS011;5866;49.094;11.900;2023-08-12T03:08:38;50.10;;;47.10;;
11620;SDS011;5866;49.094;11.900;2023-08-12T03:11:06;43.67;;;40.95;;
11620;SDS011;5866;49.094;11.900;2023-08-12T03:13:34;65.82;;;61.92;;
11620;SDS011;5866;49.094;11.900;2023-08-12T03:16:01;56.33;;;53.03;;
11620;SDS011;5866;49.094;11.900;2023-08-12T03:18:29;113.28;;;107.07;;
11620;SDS011;5866;49.094;11.900;2023-08-12T03:20:56;146.50;;;138.90;;
11620;SDS011;5866;49.094;11.900;2023-08-12T03:23:25;92.25;;;87.03;;
11620;SDS011;5866;49.094;11.900;2023-08-12T03:25:53;155.60;;;147.30;;
11620;SDS011;5866;49.094;11.900;2023-08-12T03:28:20;168.75;;;159.95;;
11620;SDS011;5866;49.094;11.900;2023-08-12T03:30:51;152.27;;;144.35;;
11620;SDS011;5866;49.094;11.900;2023-08-12T03:33:20;121.32;;;114.78;;
11620;SDS011;5866;49.094;11.900;2023-08-12T03:35:47;117.30;;;110.90;;
11620;SDS011;5866;49.094;11.900;2023-08-12T03:38:16;88.90;;;84.05;;
11620;SDS011;5866;49.094;11.900;2023-08-12T03:40:45;63.88;;;60.22;;
11620;SDS011;5866;49.094;11.900;2023-08-12T03:43:12;51.28;;;48.28;;
11620;SDS011;5866;49.094;11.900;2023-08-12T03:45:40;51.30;;;48.28;;
11620;SDS011;5866;49.094;11.900;2023-08-12T03:48:08;33.85;;;31.40;;
11620;SDS011;5866;49.094;11.900;2023-08-12T03:50:37;20.83;;;19.27;;
11620;SDS011;5866;49.094;11.900;2023-08-12T03:53:05;25.08;;;23.40;;
11620;SDS011;5866;49.094;11.900;2023-08-12T03:55:35;33.63;;;31.55;;
11620;SDS011;5866;49.094;11.900;2023-08-12T03:58:04;59.45;;;56.15;;
11620;SDS011;5866;49.094;11.900;2023-08-12T04:00:32;34.28;;;32.25;;
11620;SDS011;5866;49.094;11.900;2023-08-12T04:03:00;33.58;;;31.38;;
11620;SDS011;5866;49.094;11.900;2023-08-12T04:05:27;20.88;;;19.63;;
11620;SDS011;5866;49.094;11.900;2023-08-12T04:07:55;26.83;;;25.13;;
11620;SDS011;5866;49.094;11.900;2023-08-12T04:10:22;25.15;;;23.65;;
11620;SDS011;5866;49.094;11.900;2023-08-12T04:12:50;26.70;;;25.08;;
11620;SDS011;5866;49.094;11.900;2023-08-12T04:15:19;27.25;;;25.65;;
11620;SDS011;5866;49.094;11.900;2023-08-12T04:17:47;29.13;;;27.20;;
11620;SDS011;5866;49.094;11.900;2023-08-12T04:20:15;27.08;;;25.20;;
11620;SDS011;5866;49.094;11.900;2023-08-12T04:22:42;26.02;;;24.38;;
11620;SDS011;5866;49.094;11.900;2023-08-12T04:25:13;25.63;;;24.13;;
11620;SDS011;5866;49.094;11.900;2023-08-12T04:27:41;23.45;;;22.05;;
11620;SDS011;5866;49.094;11.900;2023-08-12T04:30:09;10.00;;;9.27;;
11620;SDS011;5866;49.094;11.900;2023-08-12T04:32:38;17.27;;;16.20;;
11620;SDS011;5866;49.094;11.900;2023-08-12T04:35:06;7.32;;;6.82;;
11620;SDS011;5866;49.094;11.900;2023-08-12T04:37:35;8.50;;;7.88;;
11620;SDS011;5866;49.094;11.900;2023-08-12T04:40:03;36.15;;;34.13;;
11620;SDS011;5866;49.094;11.900;2023-08-12T04:42:33;23.35;;;21.80;;
11620;SDS011;5866;49.094;11.900;2023-08-12T04:45:01;8.88;;;8.23;;
11620;SDS011;5866;49.094;11.900;2023-08-12T04:47:29;10.38;;;9.73;;
11620;SDS011;5866;49.094;11.900;2023-08-12T04:49:58;8.43;;;7.93;;
11620;SDS011;5866;49.094;11.900;2023-08-12T04:52:26;7.35;;;6.82;;
11620;SDS011;5866;49.094;11.900;2023-08-12T04:54:53;6.35;;;5.85;;
11620;SDS011;5866;49.094;11.900;2023-08-12T04:57:21;8.98;;;5.45;;
11620;SDS011;5866;49.094;11.900;2023-08-12T04:59:48;5.60;;;5.20;;
11620;SDS011;5866;49.094;11.900;2023-08-12T05:02:16;5.45;;;5.05;;
11620;SDS011;5866;49.094;11.900;2023-08-12T05:04:46;4.72;;;4.32;;
11620;SDS011;5866;49.094;11.900;2023-08-12T05:07:16;5.43;;;5.03;;
11620;SDS011;5866;49.094;11.900;2023-08-12T05:09:43;4.72;;;4.43;;
11620;SDS011;5866;49.094;11.900;2023-08-12T05:12:11;5.00;;;4.32;;
11620;SDS011;5866;49.094;11.900;2023-08-12T05:14:39;5.20;;;4.55;;
11620;SDS011;5866;49.094;11.900;2023-08-12T05:17:07;4.68;;;4.28;;
11620;SDS011;5866;49.094;11.900;2023-08-12T05:19:35;5.45;;;4.20;;
11620;SDS011;5866;49.094;11.900;2023-08-12T05:22:03;4.50;;;4.10;;
11620;SDS011;5866;49.094;11.900;2023-08-12T05:24:32;4.32;;;3.92;;
11620;SDS011;5866;49.094;11.900;2023-08-12T05:27:00;4.72;;;4.40;;
11620;SDS011;5866;49.094;11.900;2023-08-12T05:29:27;3.80;;;3.55;;
11620;SDS011;5866;49.094;11.900;2023-08-12T05:31:55;4.20;;;3.50;;
11620;SDS011;5866;49.094;11.900;2023-08-12T05:34:22;4.60;;;4.20;;
11620;SDS011;5866;49.094;11.900;2023-08-12T05:36:50;4.40;;;4.10;;
11620;SDS011;5866;49.094;11.900;2023-08-12T05:39:17;4.03;;;3.72;;
11620;SDS011;5866;49.094;11.900;2023-08-12T05:41:46;3.97;;;3.67;;
11620;SDS011;5866;49.094;11.900;2023-08-12T05:44:14;6.40;;;4.13;;
11620;SDS011;5866;49.094;11.900;2023-08-12T05:46:42;3.92;;;3.63;;
11620;SDS011;5866;49.094;11.900;2023-08-12T05:49:09;4.05;;;3.75;;
11620;SDS011;5866;49.094;11.900;2023-08-12T05:51:37;3.95;;;3.70;;
11620;SDS011;5866;49.094;11.900;2023-08-12T05:54:05;4.22;;;3.83;;
11620;SDS011;5866;49.094;11.900;2023-08-12T05:56:32;3.95;;;3.65;;
11620;SDS011;5866;49.094;11.900;2023-08-12T05:59:01;4.30;;;3.90;;
11620;SDS011;5866;49.094;11.900;2023-08-12T06:01:29;4.78;;;3.90;;
11620;SDS011;5866;49.094;11.900;2023-08-12T06:03:57;4.97;;;3.72;;
11620;SDS011;5866;49.094;11.900;2023-08-12T06:06:24;3.83;;;3.53;;
11620;SDS011;5866;49.094;11.900;2023-08-12T06:08:52;4.10;;;3.70;;
11620;SDS011;5866;49.094;11.900;2023-08-12T06:11:19;4.22;;;3.72;;
11620;SDS011;5866;49.094;11.900;2023-08-12T06:13:47;3.90;;;3.60;;
11620;SDS011;5866;49.094;11.900;2023-08-12T06:16:16;4.35;;;3.95;;
11620;SDS011;5866;49.094;11.900;2023-08-12T06:18:44;4.25;;;3.85;;
11620;SDS011;5866;49.094;11.900;2023-08-12T06:21:11;3.63;;;3.33;;
11620;SDS011;5866;49.094;11.900;2023-08-12T06:23:39;4.00;;;3.70;;
11620;SDS011;5866;49.094;11.900;2023-08-12T06:26:06;3.80;;;3.50;;
11620;SDS011;5866;49.094;11.900;2023-08-12T06:28:34;3.85;;;3.55;;
11620;SDS011;5866;49.094;11.900;2023-08-12T06:31:01;3.78;;;3.47;;
11620;SDS011;5866;49.094;11.900;2023-08-12T06:33:30;3.65;;;3.35;;
11620;SDS011;5866;49.094;11.900;2023-08-12T06:35:58;3.40;;;3.10;;
11620;SDS011;5866;49.094;11.900;2023-08-12T06:38:25;3.97;;;3.60;;
11620;SDS011;5866;49.094;11.900;2023-08-12T06:40:54;3.72;;;3.42;;
11620;SDS011;5866;49.094;11.900;2023-08-12T06:43:22;4.25;;;3.83;;
11620;SDS011;5866;49.094;11.900;2023-08-12T06:45:49;4.22;;;3.92;;
11620;SDS011;5866;49.094;11.900;2023-08-12T06:48:17;4.07;;;3.78;;
11620;SDS011;5866;49.094;11.900;2023-08-12T06:50:52;4.13;;;3.72;;
11620;SDS011;5866;49.094;11.900;2023-08-12T06:53:20;3.95;;;3.60;;
11620;SDS011;5866;49.094;11.900;2023-08-12T06:55:47;4.25;;;3.72;;
11620;SDS011;5866;49.094;11.900;2023-08-12T06:58:15;4.00;;;3.70;;
11620;SDS011;5866;49.094;11.900;2023-08-12T07:00:42;5.45;;;4.75;;
11620;SDS011;5866;49.094;11.900;2023-08-12T07:03:10;5.68;;;5.15;;
11620;SDS011;5866;49.094;11.900;2023-08-12T07:05:38;6.88;;;6.38;;
11620;SDS011;5866;49.094;11.900;2023-08-12T07:08:07;7.07;;;6.50;;
11620;SDS011;5866;49.094;11.900;2023-08-12T07:10:37;11.45;;;8.23;;
11620;SDS011;5866;49.094;11.900;2023-08-12T07:13:05;6.65;;;6.03;;
11620;SDS011;5866;49.094;11.900;2023-08-12T07:15:32;7.10;;;6.60;;
11620;SDS011;5866;49.094;11.900;2023-08-12T07:18:00;7.05;;;6.35;;
11620;SDS011;5866;49.094;11.900;2023-08-12T07:20:27;7.93;;;7.43;;
11620;SDS011;5866;49.094;11.900;2023-08-12T07:22:55;9.15;;;8.35;;
11620;SDS011;5866;49.094;11.900;2023-08-12T07:25:24;8.52;;;7.90;;
11620;SDS011;5866;49.094;11.900;2023-08-12T07:27:52;8.07;;;7.57;;
11620;SDS011;5866;49.094;11.900;2023-08-12T07:30:19;7.53;;;7.03;;
11620;SDS011;5866;49.094;11.900;2023-08-12T07:32:47;7.32;;;6.82;;
11620;SDS011;5866;49.094;11.900;2023-08-12T07:35:14;6.40;;;6.00;;
11620;SDS011;5866;49.094;11.900;2023-08-12T07:37:42;8.65;;;8.05;;
11620;SDS011;5866;49.094;11.900;2023-08-12T07:40:10;8.70;;;8.07;;
11620;SDS011;5866;49.094;11.900;2023-08-12T07:42:40;8.63;;;8.00;;
11620;SDS011;5866;49.094;11.900;2023-08-12T07:45:08;8.32;;;7.80;;
11620;SDS011;5866;49.094;11.900;2023-08-12T07:47:36;6.50;;;5.88;;
11620;SDS011;5866;49.094;11.900;2023-08-12T07:50:06;5.53;;;5.05;;
11620;SDS011;5866;49.094;11.900;2023-08-12T07:52:34;4.80;;;4.07;;
11620;SDS011;5866;49.094;11.900;2023-08-12T07:55:01;5.25;;;4.95;;
11620;SDS011;5866;49.094;11.900;2023-08-12T07:57:29;5.47;;;5.07;;
11620;SDS011;5866;49.094;11.900;2023-08-12T07:59:58;5.75;;;5.35;;
11620;SDS011;5866;49.094;11.900;2023-08-12T08:02:26;5.40;;;5.00;;
11620;SDS011;5866;49.094;11.900;2023-08-12T08:04:54;9.52;;;6.43;;
11620;SDS011;5866;49.094;11.900;2023-08-12T08:07:21;6.40;;;5.82;;
11620;SDS011;5866;49.094;11.900;2023-08-12T08:09:50;6.15;;;5.68;;
11620;SDS011;5866;49.094;11.900;2023-08-12T08:12:18;6.38;;;5.72;;
11620;SDS011;5866;49.094;11.900;2023-08-12T08:14:46;6.18;;;5.63;;
11620;SDS011;5866;49.094;11.900;2023-08-12T08:17:15;5.60;;;5.13;;
11620;SDS011;5866;49.094;11.900;2023-08-12T08:19:42;4.88;;;4.47;;
11620;SDS011;5866;49.094;11.900;2023-08-12T08:22:10;5.00;;;4.70;;
11620;SDS011;5866;49.094;11.900;2023-08-12T08:24:38;5.38;;;4.93;;
11620;SDS011;5866;49.094;11.900;2023-08-12T08:27:06;6.25;;;5.85;;
11620;SDS011;5866;49.094;11.900;2023-08-12T08:29:33;6.30;;;5.90;;
11620;SDS011;5866;49.094;11.900;2023-08-12T08:32:01;7.05;;;6.60;;
11620;SDS011;5866;49.094;11.900;2023-08-12T08:34:30;7.47;;;6.97;;
11620;SDS011;5866;49.094;11.900;2023-08-12T08:36:57;8.82;;;8.25;;
11620;SDS011;5866;49.094;11.900;2023-08-12T08:39:25;9.90;;;9.30;;
11620;SDS011;5866;49.094;11.900;2023-08-12T08:41:52;10.15;;;9.55;;
11620;SDS011;5866;49.094;11.900;2023-08-12T08:44:22;10.52;;;9.93;;
11620;SDS011;5866;49.094;11.900;2023-08-12T08:46:51;9.40;;;8.88;;
11620;SDS011;5866;49.094;11.900;2023-08-12T08:49:20;8.55;;;8.02;;
11620;SDS011;5866;49.094;11.900;2023-08-12T08:51:50;10.00;;;8.27;;
11620;SDS011;5866;49.094;11.900;2023-08-12T08:54:19;8.10;;;7.50;;
11620;SDS011;5866;49.094;11.900;2023-08-12T08:56:47;7.93;;;7.43;;
11620;SDS011;5866;49.094;11.900;2023-08-12T08:59:21;7.10;;;6.60;;
11620;SDS011;5866;49.094;11.900;2023-08-12T09:01:48;5.95;;;5.55;;
11620;SDS011;5866;49.094;11.900;2023-08-12T09:04:18;6.40;;;6.00;;
11620;SDS011;5866;49.094;11.900;2023-08-12T09:06:47;5.57;;;5.07;;
11620;SDS011;5866;49.094;11.900;2023-08-12T09:09:16;5.07;;;4.68;;
11620;SDS011;5866;49.094;11.900;2023-08-12T09:11:46;5.25;;;4.85;;
11620;SDS011;5866;49.094;11.900;2023-08-12T09:14:14;4.60;;;4.20;;
11620;SDS011;5866;49.094;11.900;2023-08-12T09:16:42;6.13;;;5.50;;
11620;SDS011;5866;49.094;11.900;2023-08-12T09:19:10;4.80;;;4.38;;
11620;SDS011;5866;49.094;11.900;2023-08-12T09:21:38;5.95;;;5.43;;
11620;SDS011;5866;49.094;11.900;2023-08-12T09:24:07;5.38;;;4.97;;
11620;SDS011;5866;49.094;11.900;2023-08-12T09:26:36;4.80;;;4.50;;
11620;SDS011;5866;49.094;11.900;2023-08-12T09:29:04;7.82;;;5.63;;
11620;SDS011;5866;49.094;11.900;2023-08-12T09:31:32;5.05;;;4.55;;
11620;SDS011;5866;49.094;11.900;2023-08-12T09:34:00;4.70;;;4.30;;
11620;SDS011;5866;49.094;11.900;2023-08-12T09:36:33;4.43;;;3.38;;
11620;SDS011;5866;49.094;11.900;2023-08-12T09:39:05;4.50;;;4.20;;
11620;SDS011;5866;49.094;11.900;2023-08-12T09:41:37;3.80;;;3.53;;
11620;SDS011;5866;49.094;11.900;2023-08-12T09:44:05;5.03;;;4.63;;
11620;SDS011;5866;49.094;11.900;2023-08-12T09:46:33;4.35;;;4.05;;
11620;SDS011;5866;49.094;11.900;2023-08-12T09:49:00;4.80;;;4.45;;
11620;SDS011;5866;49.094;11.900;2023-08-12T09:51:33;4.60;;;4.30;;
11620;SDS011;5866;49.094;11.900;2023-08-12T09:54:02;4.78;;;4.47;;
11620;SDS011;5866;49.094;11.900;2023-08-12T09:56:30;5.13;;;4.82;;
11620;SDS011;5866;49.094;11.900;2023-08-12T09:59:04;7.30;;;6.70;;
11620;SDS011;5866;49.094;11.900;2023-08-12T10:01:33;6.25;;;5.75;;
11620;SDS011;5866;49.094;11.900;2023-08-12T10:04:01;6.72;;;6.22;;
11620;SDS011;5866;49.094;11.900;2023-08-12T10:06:33;5.80;;;5.30;;
11620;SDS011;5866;49.094;11.900;2023-08-12T10:09:01;5.82;;;5.43;;
11620;SDS011;5866;49.094;11.900;2023-08-12T10:11:29;6.82;;;6.22;;
11620;SDS011;5866;49.094;11.900;2023-08-12T10:13:57;6.57;;;6.18;;
11620;SDS011;5866;49.094;11.900;2023-08-12T10:16:27;6.97;;;6.57;;
11620;SDS011;5866;49.094;11.900;2023-08-12T10:18:56;6.47;;;5.85;;
11620;SDS011;5866;49.094;11.900;2023-08-12T10:21:25;7.95;;;7.20;;
11620;SDS011;5866;49.094;11.900;2023-08-12T10:23:53;7.05;;;6.65;;
11620;SDS011;5866;49.094;11.900;2023-08-12T10:26:21;8.43;;;7.93;;
11620;SDS011;5866;49.094;11.900;2023-08-12T10:28:51;9.50;;;8.75;;
11620;SDS011;5866;49.094;11.900;2023-08-12T10:31:19;9.98;;;9.00;;
11620;SDS011;5866;49.094;11.900;2023-08-12T10:33:48;10.02;;;9.23;;
11620;SDS011;5866;49.094;11.900;2023-08-12T10:36:16;9.25;;;8.45;;
11620;SDS011;5866;49.094;11.900;2023-08-12T10:38:45;9.68;;;9.07;;
11620;SDS011;5866;49.094;11.900;2023-08-12T10:41:16;8.77;;;8.18;;
11620;SDS011;5866;49.094;11.900;2023-08-12T10:43:48;7.63;;;6.93;;
11620;SDS011;5866;49.094;11.900;2023-08-12T10:46:21;7.18;;;6.68;;
11620;SDS011;5866;49.094;11.900;2023-08-12T10:48:58;6.40;;;5.90;;
11620;SDS011;5866;49.094;11.900;2023-08-12T10:51:43;5.70;;;5.40;;
11620;SDS011;5866;49.094;11.900;2023-08-12T10:54:16;6.57;;;6.13;;
11620;SDS011;5866;49.094;11.900;2023-08-12T10:59:56;6.68;;;6.25;;
11620;SDS011;5866;49.094;11.900;2023-08-12T11:02:28;6.22;;;5.55;;
11620;SDS011;5866;49.094;11.900;2023-08-12T11:05:00;6.22;;;5.82;;
11620;SDS011;5866;49.094;11.900;2023-08-12T11:07:33;6.05;;;5.70;;
11620;SDS011;5866;49.094;11.900;2023-08-12T11:10:05;6.55;;;6.05;;
11620;SDS011;5866;49.094;11.900;2023-08-12T11:12:38;5.60;;;5.30;;
11620;SDS011;5866;49.094;11.900;2023-08-12T11:15:06;6.20;;;5.72;;
11620;SDS011;5866;49.094;11.900;2023-08-12T11:17:35;7.70;;;6.07;;
11620;SDS011;5866;49.094;11.900;2023-08-12T11:20:05;5.80;;;5.40;;
11620;SDS011;5866;49.094;11.900;2023-08-12T11:22:37;5.55;;;5.25;;
11620;SDS011;5866;49.094;11.900;2023-08-12T11:25:05;6.03;;;5.72;;
11620;SDS011;5866;49.094;11.900;2023-08-12T11:27:39;7.03;;;6.28;;
11620;SDS011;5866;49.094;11.900;2023-08-12T11:30:07;5.40;;;5.10;;
11620;SDS011;5866;49.094;11.900;2023-08-12T11:32:37;5.22;;;4.88;;
11620;SDS011;5866;49.094;11.900;2023-08-12T11:35:07;7.07;;;5.68;;
11620;SDS011;5866;49.094;11.900;2023-08-12T11:37:37;5.75;;;5.35;;
11620;SDS011;5866;49.094;11.900;2023-08-12T11:40:06;5.40;;;5.10;;
11620;SDS011;5866;49.094;11.900;2023-08-12T11:42:36;6.10;;;5.70;;
11620;SDS011;5866;49.094;11.900;2023-08-12T11:45:04;6.80;;;6.15;;
11620;SDS011;5866;49.094;11.900;2023-08-12T11:47:33;6.13;;;5.72;;
11620;SDS011;5866;49.094;11.900;2023-08-12T11:50:01;6.30;;;5.90;;
11620;SDS011;5866;49.094;11.900;2023-08-12T11:52:31;5.78;;;5.38;;
11620;SDS011;5866;49.094;11.900;2023-08-12T11:54:59;6.25;;;5.75;;
11620;SDS011;5866;49.094;11.900;2023-08-12T11:57:27;5.75;;;5.35;;
11620;SDS011;5866;49.094;11.900;2023-08-12T11:59:58;5.45;;;5.05;;
11620;SDS011;5866;49.094;11.900;2023-08-12T12:02:26;5.47;;;5.07;;
11620;SDS011;5866;49.094;11.900;2023-08-12T12:04:54;5.03;;;4.72;;
11620;SDS011;5866;49.094;11.900;2023-08-12T12:07:22;5.57;;;5.18;;
11620;SDS011;5866;49.094;11.900;2023-08-12T12:09:53;6.18;;;5.68;;
11620;SDS011;5866;49.094;11.900;2023-08-12T12:12:22;5.38;;;4.97;;
11620;SDS011;5866;49.094;11.900;2023-08-12T12:14:50;7.00;;;6.22;;
11620;SDS011;5866;49.094;11.900;2023-08-12T12:17:20;5.78;;;5.38;;
11620;SDS011;5866;49.094;11.900;2023-08-12T12:19:51;39.63;;;11.90;;
11620;SDS011;5866;49.094;11.900;2023-08-12T12:22:25;5.35;;;4.72;;
11620;SDS011;5866;49.094;11.900;2023-08-12T12:24:57;5.35;;;4.85;;
11620;SDS011;5866;49.094;11.900;2023-08-12T12:27:25;53.05;;;16.05;;
11620;SDS011;5866;49.094;11.900;2023-08-12T12:29:53;5.25;;;4.90;;
11620;SDS011;5866;49.094;11.900;2023-08-12T12:32:21;19.55;;;7.60;;
11620;SDS011;5866;49.094;11.900;2023-08-12T12:34:49;4.50;;;4.20;;
11620;SDS011;5866;49.094;11.900;2023-08-12T12:37:17;14.23;;;6.70;;
11620;SDS011;5866;49.094;11.900;2023-08-12T12:39:45;16.25;;;8.02;;
11620;SDS011;5866;49.094;11.900;2023-08-12T12:42:14;18.63;;;8.30;;
11620;SDS011;5866;49.094;11.900;2023-08-12T12:44:41;5.28;;;4.78;;
11620;SDS011;5866;49.094;11.900;2023-08-12T12:47:09;4.78;;;4.47;;
11620;SDS011;5866;49.094;11.900;2023-08-12T12:49:38;5.10;;;4.68;;
11620;SDS011;5866;49.094;11.900;2023-08-12T12:52:08;5.00;;;4.60;;
11620;SDS011;5866;49.094;11.900;2023-08-12T12:54:36;5.10;;;4.65;;
11620;SDS011;5866;49.094;11.900;2023-08-12T12:57:05;5.40;;;4.90;;
11620;SDS011;5866;49.094;11.900;2023-08-12T12:59:34;4.70;;;4.30;;
11620;SDS011;5866;49.094;11.900;2023-08-12T13:02:01;4.63;;;4.22;;
11620;SDS011;5866;49.094;11.900;2023-08-12T13:04:29;4.82;;;4.53;;
11620;SDS011;5866;49.094;11.900;2023-08-12T13:06:56;5.10;;;4.80;;
11620;SDS011;5866;49.094;11.900;2023-08-12T13:09:24;4.80;;;4.28;;
11620;SDS011;5866;49.094;11.900;2023-08-12T13:11:51;4.82;;;4.40;;
11620;SDS011;5866;49.094;11.900;2023-08-12T13:14:22;5.03;;;4.45;;
11620;SDS011;5866;49.094;11.900;2023-08-12T13:16:51;4.80;;;4.35;;
11620;SDS011;5866;49.094;11.900;2023-08-12T13:19:19;5.13;;;4.72;;
11620;SDS011;5866;49.094;11.900;2023-08-12T13:21:47;7.55;;;5.35;;
11620;SDS011;5866;49.094;11.900;2023-08-12T13:24:14;5.57;;;4.97;;
11620;SDS011;5866;49.094;11.900;2023-08-12T13:26:42;5.63;;;5.18;;
11620;SDS011;5866;49.094;11.900;2023-08-12T13:29:10;5.15;;;4.85;;
11620;SDS011;5866;49.094;11.900;2023-08-12T13:31:37;5.97;;;5.05;;
11620;SDS011;5866;49.094;11.900;2023-08-12T13:34:07;5.50;;;5.10;;
11620;SDS011;5866;49.094;11.900;2023-08-12T13:36:35;5.05;;;4.68;;
11620;SDS011;5866;49.094;11.900;2023-08-12T13:39:02;5.15;;;4.85;;
11620;SDS011;5866;49.094;11.900;2023-08-12T13:41:30;5.20;;;4.90;;
11620;SDS011;5866;49.094;11.900;2023-08-12T13:43:58;5.28;;;4.97;;
11620;SDS011;5866;49.094;11.900;2023-08-12T13:46:25;6.35;;;5.45;;
11620;SDS011;5866;49.094;11.900;2023-08-12T13:48:53;6.82;;;5.13;;
11620;SDS011;5866;49.094;11.900;2023-08-12T13:51:22;6.47;;;6.07;;
11620;SDS011;5866;49.094;11.900;2023-08-12T13:53:49;5.50;;;5.20;;
11620;SDS011;5866;49.094;11.900;2023-08-12T13:56:17;7.05;;;6.45;;
11620;SDS011;5866;49.094;11.900;2023-08-12T13:58:44;5.63;;;5.22;;
11620;SDS011;5866;49.094;11.900;2023-08-12T14:01:12;6.47;;;5.72;;
11620;SDS011;5866;49.094;11.900;2023-08-12T14:03:40;7.00;;;6.45;;
11620;SDS011;5866;49.094;11.900;2023-08-12T14:06:07;6.53;;;6.03;;
11620;SDS011;5866;49.094;11.900;2023-08-12T14:08:36;6.25;;;5.65;;
11620;SDS011;5866;49.094;11.900;2023-08-12T14:11:04;5.60;;;5.30;;
11620;SDS011;5866;49.094;11.900;2023-08-12T14:13:31;5.38;;;5.07;;
11620;SDS011;5866;49.094;11.900;2023-08-12T14:15:59;5.75;;;5.30;;
11620;SDS011;5866;49.094;11.900;2023-08-12T14:18:27;6.03;;;5.63;;
11620;SDS011;5866;49.094;11.900;2023-08-12T14:20:55;5.97;;;5.63;;
11620;SDS011;5866;49.094;11.900;2023-08-12T14:23:22;6.60;;;6.18;;
11620;SDS011;5866;49.094;11.900;2023-08-12T14:25:51;8.38;;;6.78;;
11620;SDS011;5866;49.094;11.900;2023-08-12T14:28:19;7.20;;;6.60;;
11620;SDS011;5866;49.094;11.900;2023-08-12T14:30:46;6.65;;;6.25;;
11620;SDS011;5866;49.094;11.900;2023-08-12T14:33:14;8.52;;;7.85;;
11620;SDS011;5866;49.094;11.900;2023-08-12T14:35:41;6.70;;;6.30;;
11620;SDS011;5866;49.094;11.900;2023-08-12T14:38:09;7.35;;;6.50;;
11620;SDS011;5866;49.094;11.900;2023-08-12T14:40:38;7.55;;;7.05;;
11620;SDS011;5866;49.094;11.900;2023-08-12T14:43:07;7.70;;;7.10;;
11620;SDS011;5866;49.094;11.900;2023-08-12T14:45:35;7.88;;;7.28;;
11620;SDS011;5866;49.094;11.900;2023-08-12T14:48:02;7.85;;;7.35;;